createdAt,value
2019-05-10T00:00:21.866Z,81.70
2019-05-10T00:03:10.139Z,81.10
2019-05-10T00:05:59.032Z,81.20
2019-05-10T00:08:47.435Z,81.50
2019-05-10T00:11:38.662Z,81.50
2019-05-10T00:14:45.107Z,81.60
2019-05-10T00:17:19.978Z,82.20
2019-05-10T00:19:50.994Z,82.80
2019-05-10T00:22:21.768Z,82.20
2019-05-10T00:25:02.922Z,82.70
2019-05-10T00:27:26.078Z,82.00
2019-05-10T00:29:56.979Z,81.70
2019-05-10T00:32:27.588Z,82.00
2019-05-10T00:34:58.807Z,81.70
2019-05-10T00:37:29.472Z,81.80
2019-05-10T00:40:00.781Z,81.30
2019-05-10T00:42:31.335Z,80.20
2019-05-10T00:45:01.829Z,80.40
2019-05-10T00:47:33.016Z,80.80
2019-05-10T00:50:04.086Z,80.70
2019-05-10T00:52:35.059Z,80.90
2019-05-10T00:55:17.739Z,81.30
2019-05-10T00:57:38.556Z,81.10
2019-05-10T01:00:09.488Z,81.50
2019-05-10T01:02:40.220Z,81.00
2019-05-10T01:05:10.794Z,80.10
2019-05-10T01:07:41.846Z,79.90
2019-05-10T01:10:12.500Z,79.10
2019-05-10T01:12:43.439Z,77.50
2019-05-10T01:15:14.716Z,77.20
2019-05-10T01:17:45.699Z,77.30
2019-05-10T01:20:16.690Z,77.40
2019-05-10T01:22:47.226Z,77.30
2019-05-10T01:25:33.734Z,77.20
2019-05-10T01:27:50.546Z,77.20
2019-05-10T01:30:21.564Z,77.10
2019-05-10T01:32:52.682Z,77.20
2019-05-10T01:35:25.696Z,77.10
2019-05-10T01:37:57.388Z,77.10
2019-05-10T01:40:29.379Z,77.20
2019-05-10T01:43:00.947Z,77.70
2019-05-10T01:45:31.489Z,77.10
2019-05-10T01:48:02.051Z,77.30
2019-05-10T01:50:39.151Z,77.20
2019-05-10T01:53:19.453Z,77.20
2019-05-10T01:55:52.895Z,77.50
2019-05-10T01:58:24.776Z,77.80
2019-05-10T02:00:57.511Z,77.80
2019-05-10T02:03:28.092Z,77.80
2019-05-10T02:06:00.316Z,77.60
2019-05-10T02:08:31.088Z,78.10
2019-05-10T02:11:03.377Z,79.00
2019-05-10T02:13:34.351Z,78.50
2019-05-10T02:16:04.865Z,78.80
2019-05-10T02:18:35.794Z,78.30
2019-05-10T02:21:08.203Z,78.70
2019-05-10T02:23:38.738Z,78.80
2019-05-10T02:26:10.106Z,78.60
2019-05-10T02:28:41.039Z,78.10
2019-05-10T02:31:12.164Z,78.40
2019-05-10T02:33:43.144Z,78.20
2019-05-10T02:36:13.576Z,79.80
2019-05-10T02:38:44.380Z,78.90
2019-05-10T02:41:15.236Z,78.90
2019-05-10T02:43:46.143Z,80.00
2019-05-10T02:46:17.249Z,79.00
2019-05-10T02:48:47.828Z,78.70
2019-05-10T02:51:18.731Z,78.60
2019-05-10T02:53:51.512Z,78.10
2019-05-10T02:56:30.269Z,76.90
2019-05-10T02:58:57.474Z,77.90
2019-05-10T03:01:30.861Z,78.10
2019-05-10T03:04:05.697Z,77.70
2019-05-10T03:06:37.423Z,77.50
2019-05-10T03:09:08.879Z,77.20
2019-05-10T03:11:47.606Z,77.70
2019-05-10T03:14:21.392Z,78.00
2019-05-10T03:16:53.205Z,78.60
2019-05-10T03:19:24.513Z,79.10
2019-05-10T03:22:06.316Z,78.70
2019-05-10T03:24:37.259Z,79.00
2019-05-10T03:27:07.856Z,78.70
2019-05-10T03:29:38.548Z,79.50
2019-05-10T03:32:09.328Z,79.10
2019-05-10T03:34:40.284Z,78.50
2019-05-10T03:37:11.419Z,79.00
2019-05-10T03:39:42.283Z,78.70
2019-05-10T03:42:13.312Z,77.70
2019-05-10T03:44:43.905Z,76.90
2019-05-10T03:47:14.409Z,77.30
2019-05-10T03:49:44.959Z,77.70
2019-05-10T03:52:15.468Z,77.40
2019-05-10T03:54:45.960Z,78.10
2019-05-10T03:57:16.853Z,77.60
2019-05-10T03:59:47.596Z,78.20
2019-05-10T04:02:19.153Z,77.40
2019-05-10T04:04:49.727Z,77.30
2019-05-10T04:07:20.973Z,77.20
2019-05-10T04:09:51.529Z,77.70
2019-05-10T04:12:22.228Z,78.30
2019-05-10T04:14:52.775Z,78.00
2019-05-10T04:17:23.750Z,78.50
2019-05-10T04:19:54.467Z,79.10
2019-05-10T04:22:26.452Z,79.50
2019-05-10T04:24:57.048Z,78.50
2019-05-10T04:27:32.575Z,80.00
2019-05-10T04:30:00.193Z,80.00
2019-05-10T04:32:31.187Z,80.20
2019-05-10T04:35:02.133Z,79.70
2019-05-10T04:37:33.481Z,78.60
2019-05-10T04:40:04.578Z,78.10
2019-05-10T04:42:35.188Z,78.10
2019-05-10T04:45:07.987Z,78.70
2019-05-10T04:47:38.918Z,77.20
2019-05-10T04:50:10.041Z,75.40
2019-05-10T04:52:40.887Z,75.60
2019-05-10T04:55:11.471Z,76.70
2019-05-10T04:57:50.567Z,76.80
2019-05-10T05:00:15.324Z,77.80
2019-05-10T05:02:45.877Z,78.80
2019-05-10T05:05:16.745Z,79.20
2019-05-10T05:07:47.695Z,78.50
2019-05-10T05:10:18.401Z,78.40
2019-05-10T05:12:52.448Z,78.60
2019-05-10T05:15:26.042Z,78.30
2019-05-10T05:17:56.583Z,78.20
2019-05-10T05:20:27.407Z,77.80
2019-05-10T05:22:59.937Z,77.80
2019-05-10T05:25:35.253Z,76.90
2019-05-10T05:28:07.810Z,76.40
2019-05-10T05:30:38.514Z,75.10
2019-05-10T05:33:11.662Z,76.30
2019-05-10T05:35:47.773Z,74.50
2019-05-10T05:38:26.914Z,75.00
2019-05-10T05:41:05.400Z,74.00
2019-05-10T05:43:45.749Z,75.60
2019-05-10T05:46:09.686Z,73.90
2019-05-10T05:48:40.829Z,74.10
2019-05-10T05:51:11.589Z,75.60
2019-05-10T05:53:44.804Z,74.20
2019-05-10T05:56:15.973Z,74.60
2019-05-10T05:58:47.195Z,73.40
2019-05-10T06:01:25.920Z,74.50
2019-05-10T06:03:50.199Z,73.40
2019-05-10T06:06:23.380Z,71.60
2019-05-10T06:08:59.507Z,72.90
2019-05-10T06:11:29.638Z,71.60
2019-05-10T06:14:03.612Z,71.70
2019-05-10T06:16:34.618Z,69.70
2019-05-10T06:19:05.537Z,70.90
2019-05-10T06:21:36.578Z,71.60
2019-05-10T06:24:12.898Z,71.50
2019-05-10T06:26:39.558Z,71.30
2019-05-10T06:29:17.657Z,71.60
2019-05-10T06:31:43.488Z,71.60
2019-05-10T06:34:15.340Z,69.60
2019-05-10T06:36:46.609Z,69.60
2019-05-10T06:39:18.114Z,68.30
2019-05-10T06:41:55.608Z,68.20
2019-05-10T06:44:24.917Z,68.10
2019-05-10T06:46:55.192Z,68.40
2019-05-10T06:49:26.029Z,66.90
2019-05-10T06:52:00.094Z,65.00
2019-05-10T06:54:31.620Z,65.70
2019-05-10T06:57:02.340Z,66.30
2019-05-10T06:59:33.097Z,65.90
2019-05-10T07:02:03.879Z,65.10
2019-05-10T07:04:41.057Z,65.50
2019-05-10T07:07:22.307Z,65.20
2019-05-10T07:10:03.325Z,64.90
2019-05-10T07:12:18.447Z,64.70
2019-05-10T07:14:49.448Z,65.40
2019-05-10T07:17:20.507Z,65.00
2019-05-10T07:19:54.777Z,65.10
2019-05-10T07:22:26.812Z,64.50
2019-05-10T07:25:07.563Z,65.50
2019-05-10T07:27:36.631Z,64.40
2019-05-10T07:30:12.766Z,63.60
2019-05-10T07:32:43.923Z,62.80
2019-05-10T07:35:14.921Z,62.90
2019-05-10T07:37:47.747Z,61.00
2019-05-10T07:40:38.156Z,59.90
2019-05-10T07:43:28.627Z,60.90
2019-05-10T07:46:39.885Z,61.00
2019-05-10T07:49:13.234Z,60.10
2019-05-10T07:51:44.231Z,60.40
2019-05-10T07:54:15.446Z,61.40
2019-05-10T07:56:47.933Z,61.10
2019-05-10T07:59:22.043Z,59.90
2019-05-10T08:01:51.136Z,58.50
2019-05-10T08:04:31.420Z,57.90
2019-05-10T08:06:54.486Z,57.70
2019-05-10T08:09:25.404Z,57.90
2019-05-10T08:12:03.294Z,57.70
2019-05-10T08:14:29.136Z,57.40
2019-05-10T08:17:05.937Z,57.50
2019-05-10T08:19:37.511Z,58.10
2019-05-10T08:22:08.990Z,58.10
2019-05-10T08:24:46.445Z,57.40
2019-05-10T08:27:14.817Z,57.10
2019-05-10T08:29:45.530Z,56.90
2019-05-10T08:32:19.319Z,55.90
2019-05-10T08:34:53.048Z,55.40
2019-05-10T08:37:33.152Z,55.70
2019-05-10T08:39:58.004Z,55.60
2019-05-10T08:42:43.418Z,56.00
2019-05-10T08:45:05.474Z,56.20
2019-05-10T08:47:37.104Z,56.00
2019-05-10T08:50:22.638Z,55.80
2019-05-10T08:52:42.344Z,54.70
2019-05-10T08:55:18.318Z,54.70
2019-05-10T09:00:50.626Z,54.30
2019-05-10T09:03:18.402Z,53.90
2019-05-10T09:05:45.519Z,53.70
2019-05-10T09:08:31.686Z,53.60
2019-05-10T09:11:06.606Z,54.30
2019-05-10T09:13:40.960Z,53.50
2019-05-10T09:16:10.820Z,53.40
2019-05-10T09:18:50.222Z,53.00
2019-05-10T09:21:18.918Z,51.70
2019-05-10T09:24:01.218Z,52.20
2019-05-10T09:26:24.177Z,53.00
2019-05-10T09:28:57.807Z,51.50
2019-05-10T09:31:32.663Z,50.60
2019-05-10T09:34:04.576Z,48.90
2019-05-10T09:36:37.864Z,49.30
2019-05-10T09:39:17.627Z,49.10
2019-05-10T09:41:44.855Z,49.60
2019-05-10T09:44:24.955Z,49.20
2019-05-10T09:46:56.170Z,48.90
2019-05-10T09:49:27.536Z,49.30
2019-05-10T09:52:03.829Z,50.00
2019-05-10T09:54:51.338Z,49.60
2019-05-10T09:57:33.110Z,50.30
2019-05-10T10:00:17.476Z,50.20
2019-05-10T10:02:56.087Z,50.50
2019-05-10T10:05:28.259Z,49.20
2019-05-10T10:08:03.824Z,49.30
2019-05-10T10:10:32.647Z,48.60
2019-05-10T10:13:13.532Z,48.40
2019-05-10T10:15:52.060Z,47.30
2019-05-10T10:18:28.280Z,45.90
2019-05-10T10:21:10.177Z,46.60
2019-05-10T10:23:40.479Z,45.60
2019-05-10T10:26:12.876Z,45.40
2019-05-10T10:28:49.548Z,46.40
2019-05-10T10:31:29.536Z,46.80
2019-05-10T10:33:58.524Z,47.50
2019-05-10T10:36:24.113Z,48.10
2019-05-10T10:38:55.047Z,48.80
2019-05-10T10:41:30.946Z,49.30
2019-05-10T10:43:58.430Z,49.80
2019-05-10T10:46:30.034Z,50.10
2019-05-10T10:49:01.177Z,50.50
2019-05-10T10:51:34.523Z,52.00
2019-05-10T14:40:33.874Z,73.20
2019-05-10T14:43:05.859Z,71.40
2019-05-10T14:45:36.856Z,71.30
2019-05-10T14:48:08.163Z,69.30
2019-05-10T14:50:39.110Z,68.40
2019-05-10T14:53:10.301Z,65.10
2019-05-10T14:55:40.775Z,66.10
2019-05-10T14:58:12.037Z,67.80
2019-05-10T15:00:42.842Z,65.30
2019-05-10T15:03:14.783Z,62.10
2019-05-10T15:05:54.763Z,62.10
2019-05-10T15:08:21.957Z,63.00
2019-05-10T15:10:57.019Z,63.20
2019-05-10T15:13:28.242Z,60.80
2019-05-10T15:16:01.008Z,62.40
2019-05-10T15:18:32.032Z,60.60
2019-05-10T15:21:03.068Z,61.30
2019-05-10T15:23:36.097Z,62.40
2019-05-10T15:26:11.668Z,60.50
2019-05-10T15:28:42.680Z,60.10
2019-05-10T15:31:14.259Z,60.20
2019-05-10T15:33:46.914Z,59.10
2019-05-10T15:36:17.580Z,59.10
2019-05-10T15:38:51.591Z,58.90
2019-05-10T15:41:22.504Z,58.00
2019-05-10T15:43:53.853Z,58.40
2019-05-10T15:46:36.050Z,58.40
2019-05-10T15:48:58.317Z,58.00
2019-05-10T15:51:37.700Z,58.00
2019-05-10T15:54:13.813Z,57.50
2019-05-10T15:56:45.219Z,57.30
2019-05-10T15:59:19.123Z,58.00
2019-05-10T16:01:48.755Z,57.60
2019-05-10T16:04:19.393Z,57.60
2019-05-10T16:06:49.927Z,57.30
2019-05-10T16:09:21.191Z,57.90
2019-05-10T16:11:56.186Z,57.80
2019-05-10T16:14:24.974Z,57.40
2019-05-10T16:16:56.082Z,56.90
2019-05-10T16:19:30.100Z,57.70
2019-05-10T16:22:01.633Z,57.70
2019-05-10T16:24:32.482Z,57.90
2019-05-10T16:27:12.046Z,58.20
2019-05-10T16:29:52.183Z,58.20
2019-05-10T16:32:29.440Z,59.20
2019-05-10T16:35:05.792Z,58.30
2019-05-10T16:37:32.111Z,57.80
2019-05-10T16:40:02.777Z,57.10
2019-05-10T16:42:34.407Z,57.00
2019-05-10T16:45:06.573Z,57.10
2019-05-10T16:47:37.478Z,57.80
2019-05-10T16:50:08.872Z,57.80
2019-05-10T16:52:39.562Z,57.40
2019-05-10T16:55:10.287Z,57.80
2019-05-10T16:57:40.959Z,58.10
2019-05-10T17:00:12.871Z,57.00
2019-05-10T17:02:43.989Z,56.70
2019-05-10T17:05:15.627Z,56.50
2019-05-10T17:07:48.314Z,56.40
2019-05-10T17:10:19.151Z,56.50
2019-05-10T17:12:49.694Z,56.80
2019-05-10T17:15:21.207Z,56.80
2019-05-10T17:17:52.215Z,56.30
2019-05-10T17:20:23.550Z,56.00
2019-05-10T17:22:54.274Z,56.10
2019-05-10T17:25:26.061Z,55.40
2019-05-10T17:27:59.787Z,54.90
2019-05-10T17:30:32.248Z,54.90
2019-05-10T17:33:03.886Z,56.00
2019-05-10T17:35:36.599Z,55.30
2019-05-10T17:38:13.358Z,55.90
2019-05-10T17:40:48.071Z,56.20
2019-05-10T17:43:20.820Z,56.40
2019-05-10T17:45:48.232Z,56.50
2019-05-10T17:48:19.961Z,56.50
2019-05-10T17:50:50.696Z,58.00
2019-05-10T17:53:23.612Z,58.10
2019-05-10T17:56:01.699Z,58.60
2019-05-10T17:58:33.581Z,59.50
2019-05-10T18:01:00.735Z,61.50
2019-05-10T18:03:32.517Z,61.50
2019-05-10T18:10:27.916Z,60.10
2019-05-10T18:13:03.383Z,60.60
2019-05-10T18:15:34.628Z,60.70
2019-05-10T18:18:05.366Z,61.50
2019-05-10T18:20:42.105Z,61.40
2019-05-10T18:23:09.119Z,63.10
2019-05-10T18:25:39.932Z,63.90
2019-05-10T18:28:10.723Z,64.60
2019-05-10T18:30:41.597Z,65.40
2019-05-10T18:33:14.116Z,65.70
2019-05-10T18:35:52.636Z,67.00
2019-05-10T18:38:20.719Z,67.80
2019-05-10T18:40:51.311Z,67.70
2019-05-10T18:43:22.980Z,68.80
2019-05-10T18:45:55.084Z,69.50
2019-05-10T18:48:28.974Z,69.90
2019-05-10T18:50:59.858Z,70.00
2019-05-10T18:53:31.357Z,70.20
2019-05-10T18:56:02.420Z,70.40
2019-05-10T18:58:34.143Z,70.40
2019-05-10T19:01:07.752Z,70.50
2019-05-10T19:03:41.020Z,71.50
2019-05-10T19:06:13.302Z,70.50
2019-05-10T19:08:44.302Z,70.80
2019-05-10T19:11:15.032Z,71.90
2019-05-10T19:13:47.983Z,71.60
2019-05-10T19:16:20.130Z,72.20
2019-05-10T19:18:55.991Z,72.10
2019-05-10T19:21:25.036Z,72.30
2019-05-10T19:23:59.276Z,71.90
2019-05-10T19:26:31.700Z,73.20
2019-05-10T19:29:05.320Z,71.60
2019-05-10T19:31:37.874Z,71.90
2019-05-10T19:34:14.545Z,72.40
2019-05-10T19:36:44.399Z,73.20
2019-05-10T19:39:18.408Z,73.10
2019-05-10T19:41:49.005Z,72.70
2019-05-10T19:44:22.403Z,72.20
2019-05-10T19:46:53.252Z,72.30
2019-05-10T19:49:25.772Z,72.10
2019-05-10T19:51:57.718Z,72.00
2019-05-10T19:54:28.409Z,71.40
2019-05-10T19:56:59.251Z,71.70
2019-05-10T19:59:32.320Z,70.70
2019-05-10T20:02:03.343Z,70.40
2019-05-10T20:04:34.484Z,70.70
2019-05-10T20:07:05.005Z,71.20
2019-05-10T20:09:37.332Z,71.30
2019-05-10T20:12:08.274Z,71.60
2019-05-10T20:14:38.896Z,71.80
2019-05-10T20:17:11.873Z,72.00
2019-05-10T20:19:42.936Z,71.70
2019-05-10T20:22:14.296Z,71.60
2019-05-10T20:24:45.750Z,71.60
2019-05-10T20:27:16.329Z,71.80
2019-05-10T20:29:47.166Z,72.10
2019-05-10T20:32:18.096Z,72.10
2019-05-10T20:34:49.119Z,71.60
2019-05-10T20:37:19.659Z,72.50
2019-05-10T20:39:51.453Z,71.50
2019-05-10T20:42:22.573Z,73.10
2019-05-10T20:45:06.904Z,71.40
2019-05-10T20:47:26.164Z,71.00
2019-05-10T20:49:57.291Z,70.50
2019-05-10T20:52:30.664Z,70.70
2019-05-10T20:55:02.258Z,71.00
2019-05-10T20:57:32.903Z,71.10
2019-05-10T21:00:04.076Z,70.00
2019-05-10T21:02:35.580Z,70.10
2019-05-10T21:05:06.786Z,70.50
2019-05-10T21:07:38.299Z,70.50
2019-05-10T21:10:09.627Z,70.10
2019-05-10T21:12:40.631Z,69.70
2019-05-10T21:15:11.924Z,71.00
2019-05-10T21:17:42.482Z,72.50
2019-05-10T21:20:13.195Z,73.20
2019-05-10T21:22:44.422Z,73.10
2019-05-10T21:25:15.410Z,72.80
2019-05-10T21:27:46.090Z,72.80
2019-05-10T21:30:17.649Z,73.10
2019-05-10T21:32:48.340Z,72.00
2019-05-10T21:35:19.260Z,72.10
2019-05-10T21:37:50.381Z,69.70
2019-05-10T21:40:21.110Z,69.70
2019-05-10T21:42:52.415Z,69.70
2019-05-10T21:45:23.179Z,69.80
2019-05-10T21:47:54.823Z,69.40
2019-05-10T21:50:25.720Z,69.40
2019-05-10T21:52:57.068Z,69.40
2019-05-10T21:55:27.691Z,70.50
2019-05-10T21:57:58.955Z,70.00
2019-05-10T22:00:36.261Z,69.30
2019-05-10T22:03:08.411Z,69.90
2019-05-10T22:05:39.157Z,69.10
2019-05-10T22:08:10.765Z,69.40
2019-05-10T22:10:41.929Z,69.70
2019-05-10T22:13:13.084Z,69.80
2019-05-10T22:15:43.829Z,70.60
2019-05-10T22:18:15.083Z,69.70
2019-05-10T22:20:47.949Z,68.30
2019-05-10T22:23:18.982Z,68.30
2019-05-10T22:25:49.747Z,68.90
2019-05-10T22:28:20.406Z,69.10
2019-05-10T22:30:51.633Z,68.90
2019-05-10T22:33:22.518Z,69.30
2019-05-10T22:35:53.513Z,68.60
2019-05-10T22:38:24.500Z,68.60
2019-05-10T22:40:55.529Z,68.30
2019-05-10T22:43:26.337Z,68.60
2019-05-10T22:45:57.928Z,70.00
2019-05-10T22:48:28.544Z,71.30
2019-05-10T22:50:59.231Z,70.50
2019-05-10T22:53:30.424Z,70.30
2019-05-10T22:56:01.016Z,70.20
2019-05-10T22:58:31.846Z,69.30
2019-05-10T23:01:03.078Z,69.30
2019-05-10T23:03:34.088Z,68.30
2019-05-10T23:06:05.419Z,68.50
2019-05-10T23:08:36.488Z,68.30
2019-05-10T23:11:07.548Z,67.80
2019-05-10T23:13:38.998Z,68.30
2019-05-10T23:16:10.198Z,68.90
2019-05-10T23:18:40.882Z,70.10
2019-05-10T23:21:12.129Z,71.20
2019-05-10T23:23:43.121Z,71.00
2019-05-10T23:26:14.539Z,70.30
2019-05-10T23:28:45.482Z,70.20
2019-05-10T23:31:16.833Z,69.60
2019-05-10T23:33:47.769Z,69.10
2019-05-10T23:36:18.859Z,69.40
2019-05-10T23:38:52.266Z,67.20
2019-05-10T23:41:22.232Z,67.80
2019-05-10T23:43:54.514Z,68.30
2019-05-10T23:46:25.340Z,68.20
2019-05-10T23:48:56.888Z,68.90
2019-05-10T23:51:27.581Z,68.60
2019-05-10T23:53:58.650Z,68.20
2019-05-10T23:56:29.979Z,68.40
2019-05-10T23:59:00.703Z,68.20
